sensor_id;sensor_type;location;lat;lon;timestamp;pressure;altitude;pressure_sealevel;temperature;humidity
5380;BME280;2713;42.680;23.310;2024-03-02T00:01:17;94483.25;;;9.42;82.68
5380;BME280;2713;42.680;23.310;2024-03-02T00:03:44;94495.28;;;9.29;83.89
5380;BME280;2713;42.680;23.310;2024-03-02T00:06:11;94506.72;;;9.34;82.86
5380;BME280;2713;42.680;23.310;2024-03-02T00:08:38;94509.44;;;9.26;83.61
5380;BME280;2713;42.680;23.310;2024-03-02T00:11:05;94497.38;;;9.18;84.03
5380;BME280;2713;42.680;23.310;2024-03-02T00:13:32;94502.81;;;9.24;83.58
5380;BME280;2713;42.680;23.310;2024-03-02T00:16:00;94502.25;;;9.28;83.44
5380;BME280;2713;42.680;23.310;2024-03-02T00:18:33;94503.44;;;9.26;83.43
5380;BME280;2713;42.680;23.310;2024-03-02T00:21:01;94498.81;;;9.21;83.54
5380;BME280;2713;42.680;23.310;2024-03-02T00:23:29;94502.25;;;9.28;83.75
5380;BME280;2713;42.680;23.310;2024-03-02T00:25:57;94500.72;;;9.34;83.53
5380;BME280;2713;42.680;23.310;2024-03-02T00:28:27;94498.44;;;9.45;83.17
5380;BME280;2713;42.680;23.310;2024-03-02T00:30:57;94498.31;;;9.32;83.73
5380;BME280;2713;42.680;23.310;2024-03-02T00:33:25;94487.72;;;9.27;83.50
5380;BME280;2713;42.680;23.310;2024-03-02T00:35:54;94498.44;;;9.24;84.23
5380;BME280;2713;42.680;23.310;2024-03-02T00:38:22;94496.22;;;9.21;83.60
5380;BME280;2713;42.680;23.310;2024-03-02T00:40:49;94488.56;;;9.13;84.33
5380;BME280;2713;42.680;23.310;2024-03-02T00:43:41;94486.47;;;9.23;84.00
5380;BME280;2713;42.680;23.310;2024-03-02T00:46:11;94483.97;;;9.15;84.28
5380;BME280;2713;42.680;23.310;2024-03-02T00:48:38;94491.44;;;9.25;83.82
5380;BME280;2713;42.680;23.310;2024-03-02T00:51:06;94494.03;;;9.25;83.32
5380;BME280;2713;42.680;23.310;2024-03-02T00:53:34;94477.94;;;9.29;83.18
5380;BME280;2713;42.680;23.310;2024-03-02T00:56:01;94482.31;;;9.29;83.07
5380;BME280;2713;42.680;23.310;2024-03-02T00:58:28;94483.38;;;9.34;82.30
5380;BME280;2713;42.680;23.310;2024-03-02T01:00:55;94494.03;;;9.25;83.16
5380;BME280;2713;42.680;23.310;2024-03-02T01:03:22;94483.75;;;9.31;82.72
5380;BME280;2713;42.680;23.310;2024-03-02T01:05:49;94485.13;;;9.27;82.80
5380;BME280;2713;42.680;23.310;2024-03-02T01:08:17;94493.50;;;9.29;83.27
5380;BME280;2713;42.680;23.310;2024-03-02T01:10:45;94489.28;;;9.28;83.11
5380;BME280;2713;42.680;23.310;2024-03-02T01:13:12;94488.19;;;9.37;83.18
5380;BME280;2713;42.680;23.310;2024-03-02T01:15:39;94475.41;;;9.36;82.47
5380;BME280;2713;42.680;23.310;2024-03-02T01:18:06;94481.28;;;9.44;82.64
5380;BME280;2713;42.680;23.310;2024-03-02T01:20:33;94477.63;;;9.39;82.20
5380;BME280;2713;42.680;23.310;2024-03-02T01:22:59;94471.81;;;9.37;82.58
5380;BME280;2713;42.680;23.310;2024-03-02T01:25:27;94457.06;;;9.37;82.35
5380;BME280;2713;42.680;23.310;2024-03-02T01:27:54;94465.28;;;9.41;82.63
5380;BME280;2713;42.680;23.310;2024-03-02T01:30:21;94455.84;;;9.33;82.73
5380;BME280;2713;42.680;23.310;2024-03-02T01:32:48;94453.78;;;9.29;83.22
5380;BME280;2713;42.680;23.310;2024-03-02T01:35:14;94447.50;;;9.38;83.40
5380;BME280;2713;42.680;23.310;2024-03-02T01:37:41;94452.75;;;9.44;83.27
5380;BME280;2713;42.680;23.310;2024-03-02T01:40:10;94451.50;;;9.40;83.62
5380;BME280;2713;42.680;23.310;2024-03-02T01:42:39;94443.41;;;9.50;83.50
5380;BME280;2713;42.680;23.310;2024-03-02T01:45:07;94449.22;;;9.52;83.00
5380;BME280;2713;42.680;23.310;2024-03-02T01:47:35;94457.59;;;9.54;82.83
5380;BME280;2713;42.680;23.310;2024-03-02T01:50:02;94450.63;;;9.54;83.26
5380;BME280;2713;42.680;23.310;2024-03-02T01:52:29;94450.75;;;10.02;81.96
5380;BME280;2713;42.680;23.310;2024-03-02T01:54:56;94457.34;;;10.32;80.16
5380;BME280;2713;42.680;23.310;2024-03-02T01:57:23;94451.38;;;10.38;79.83
5380;BME280;2713;42.680;23.310;2024-03-02T01:59:51;94441.81;;;10.45;79.79
5380;BME280;2713;42.680;23.310;2024-03-02T02:02:19;94446.09;;;10.18;80.90
5380;BME280;2713;42.680;23.310;2024-03-02T02:04:46;94451.75;;;10.29;80.47
5380;BME280;2713;42.680;23.310;2024-03-02T02:07:13;94453.03;;;10.46;79.95
5380;BME280;2713;42.680;23.310;2024-03-02T02:09:41;94460.06;;;10.58;79.67
5380;BME280;2713;42.680;23.310;2024-03-02T02:12:08;94454.28;;;10.15;81.27
5380;BME280;2713;42.680;23.310;2024-03-02T02:14:35;94432.69;;;10.15;81.38
5380;BME280;2713;42.680;23.310;2024-03-02T02:17:04;94454.13;;;9.96;82.15
5380;BME280;2713;42.680;23.310;2024-03-02T02:19:31;94449.44;;;9.85;82.72
5380;BME280;2713;42.680;23.310;2024-03-02T02:21:59;94448.53;;;10.27;82.12
5380;BME280;2713;42.680;23.310;2024-03-02T02:24:25;94449.00;;;10.37;81.63
5380;BME280;2713;42.680;23.310;2024-03-02T02:26:52;94451.31;;;10.66;80.34
5380;BME280;2713;42.680;23.310;2024-03-02T02:29:19;94454.13;;;10.71;79.66
5380;BME280;2713;42.680;23.310;2024-03-02T02:34:27;94456.97;;;10.89;78.19
5380;BME280;2713;42.680;23.310;2024-03-02T02:36:54;94455.19;;;10.90;78.02
5380;BME280;2713;42.680;23.310;2024-03-02T02:39:23;94453.41;;;10.97;77.59
5380;BME280;2713;42.680;23.310;2024-03-02T02:41:50;94452.00;;;11.01;77.76
5380;BME280;2713;42.680;23.310;2024-03-02T02:44:17;94450.63;;;11.05;78.16
5380;BME280;2713;42.680;23.310;2024-03-02T02:46:43;94464.84;;;11.09;77.51
5380;BME280;2713;42.680;23.310;2024-03-02T02:49:10;94461.94;;;10.78;77.51
5380;BME280;2713;42.680;23.310;2024-03-02T02:51:37;94467.97;;;10.78;78.05
5380;BME280;2713;42.680;23.310;2024-03-02T02:54:04;94459.75;;;10.75;78.30
5380;BME280;2713;42.680;23.310;2024-03-02T02:56:32;94462.81;;;10.98;77.53
5380;BME280;2713;42.680;23.310;2024-03-02T02:58:59;94458.22;;;11.13;77.01
5380;BME280;2713;42.680;23.310;2024-03-02T03:01:26;94470.06;;;11.22;76.68
5380;BME280;2713;42.680;23.310;2024-03-02T03:03:53;94455.28;;;11.29;76.30
5380;BME280;2713;42.680;23.310;2024-03-02T03:06:20;94463.66;;;11.31;75.86
5380;BME280;2713;42.680;23.310;2024-03-02T03:08:47;94468.88;;;11.31;75.63
5380;BME280;2713;42.680;23.310;2024-03-02T03:11:14;94458.28;;;11.19;76.68
5380;BME280;2713;42.680;23.310;2024-03-02T03:13:42;94464.44;;;11.05;76.82
5380;BME280;2713;42.680;23.310;2024-03-02T03:16:09;94466.03;;;11.13;76.83
5380;BME280;2713;42.680;23.310;2024-03-02T03:18:36;94453.25;;;11.18;76.63
5380;BME280;2713;42.680;23.310;2024-03-02T03:21:03;94457.25;;;11.20;76.61
5380;BME280;2713;42.680;23.310;2024-03-02T03:23:30;94460.66;;;11.34;76.66
5380;BME280;2713;42.680;23.310;2024-03-02T03:25:57;94460.50;;;11.36;76.64
5380;BME280;2713;42.680;23.310;2024-03-02T03:28:24;94461.47;;;11.41;76.38
5380;BME280;2713;42.680;23.310;2024-03-02T03:30:52;94463.66;;;11.18;76.72
5380;BME280;2713;42.680;23.310;2024-03-02T03:33:19;94463.44;;;11.13;77.14
5380;BME280;2713;42.680;23.310;2024-03-02T03:35:46;94465.25;;;11.06;77.42
5380;BME280;2713;42.680;23.310;2024-03-02T03:38:16;94462.59;;;10.99;77.62
5380;BME280;2713;42.680;23.310;2024-03-02T03:40:43;94461.63;;;11.07;78.16
5380;BME280;2713;42.680;23.310;2024-03-02T03:43:10;94454.22;;;11.10;77.82
5380;BME280;2713;42.680;23.310;2024-03-02T03:45:37;94464.06;;;11.15;78.05
5380;BME280;2713;42.680;23.310;2024-03-02T03:48:05;94464.06;;;11.15;77.61
5380;BME280;2713;42.680;23.310;2024-03-02T03:50:32;94465.03;;;11.07;77.72
5380;BME280;2713;42.680;23.310;2024-03-02T03:52:59;94465.28;;;11.26;77.23
5380;BME280;2713;42.680;23.310;2024-03-02T03:55:26;94460.66;;;11.21;77.92
5380;BME280;2713;42.680;23.310;2024-03-02T03:57:52;94462.47;;;11.27;77.71
5380;BME280;2713;42.680;23.310;2024-03-02T04:00:19;94460.50;;;11.36;77.13
5380;BME280;2713;42.680;23.310;2024-03-02T04:02:45;94460.25;;;11.24;77.43
5380;BME280;2713;42.680;23.310;2024-03-02T04:05:14;94459.66;;;11.22;77.66
5380;BME280;2713;42.680;23.310;2024-03-02T04:07:40;94457.63;;;11.11;78.38
5380;BME280;2713;42.680;23.310;2024-03-02T04:10:09;94459.03;;;11.20;78.28
5380;BME280;2713;42.680;23.310;2024-03-02T04:12:36;94452.84;;;11.21;78.18
5380;BME280;2713;42.680;23.310;2024-03-02T04:15:04;94456.50;;;11.33;78.26
5380;BME280;2713;42.680;23.310;2024-03-02T04:17:32;94457.63;;;11.04;78.63
5380;BME280;2713;42.680;23.310;2024-03-02T04:20:01;94453.59;;;10.89;79.31
5380;BME280;2713;42.680;23.310;2024-03-02T04:22:32;94454.03;;;10.99;79.25
5380;BME280;2713;42.680;23.310;2024-03-02T04:25:00;94454.44;;;11.02;79.35
5380;BME280;2713;42.680;23.310;2024-03-02T04:27:26;94458.03;;;11.14;79.24
5380;BME280;2713;42.680;23.310;2024-03-02T04:29:53;94456.03;;;11.10;79.18
5380;BME280;2713;42.680;23.310;2024-03-02T04:32:20;94462.88;;;11.31;78.13
5380;BME280;2713;42.680;23.310;2024-03-02T04:34:46;94468.88;;;11.38;77.60
5380;BME280;2713;42.680;23.310;2024-03-02T04:37:13;94466.09;;;11.26;77.62
5380;BME280;2713;42.680;23.310;2024-03-02T04:39:42;94464.66;;;11.30;77.68
5380;BME280;2713;42.680;23.310;2024-03-02T04:42:09;94466.50;;;11.43;77.40
5380;BME280;2713;42.680;23.310;2024-03-02T04:44:36;94471.31;;;11.39;77.37
5380;BME280;2713;42.680;23.310;2024-03-02T04:47:04;94475.53;;;11.53;76.80
5380;BME280;2713;42.680;23.310;2024-03-02T04:49:31;94472.09;;;11.40;77.57
5380;BME280;2713;42.680;23.310;2024-03-02T04:51:58;94467.66;;;11.14;78.81
5380;BME280;2713;42.680;23.310;2024-03-02T04:54:25;94471.69;;;11.23;79.26
5380;BME280;2713;42.680;23.310;2024-03-02T04:56:54;94475.47;;;11.20;79.59
5380;BME280;2713;42.680;23.310;2024-03-02T04:59:21;94469.09;;;11.30;79.02
5380;BME280;2713;42.680;23.310;2024-03-02T05:01:48;94461.84;;;11.05;80.37
5380;BME280;2713;42.680;23.310;2024-03-02T05:04:15;94472.22;;;10.92;81.20
5380;BME280;2713;42.680;23.310;2024-03-02T05:06:42;94475.97;;;10.90;81.14
5380;BME280;2713;42.680;23.310;2024-03-02T05:09:09;94483.41;;;10.99;81.41
5380;BME280;2713;42.680;23.310;2024-03-02T05:11:36;94478.84;;;11.08;81.36
5380;BME280;2713;42.680;23.310;2024-03-02T05:14:37;94478.84;;;11.08;81.71
5380;BME280;2713;42.680;23.310;2024-03-02T05:17:05;94477.63;;;11.04;81.75
5380;BME280;2713;42.680;23.310;2024-03-02T05:19:32;94479.44;;;11.10;81.31
5380;BME280;2713;42.680;23.310;2024-03-02T05:21:58;94482.66;;;11.18;81.27
5380;BME280;2713;42.680;23.310;2024-03-02T05:24:25;94491.69;;;11.23;81.71
5380;BME280;2713;42.680;23.310;2024-03-02T05:26:53;94495.28;;;11.28;81.29
5380;BME280;2713;42.680;23.310;2024-03-02T05:29:20;94493.69;;;11.27;80.86
5380;BME280;2713;42.680;23.310;2024-03-02T05:31:49;94490.50;;;11.32;80.62
5380;BME280;2713;42.680;23.310;2024-03-02T05:34:16;94492.69;;;11.22;81.67
5380;BME280;2713;42.680;23.310;2024-03-02T05:36:44;94496.47;;;11.19;81.60
5380;BME280;2713;42.680;23.310;2024-03-02T05:39:10;94500.66;;;11.20;81.62
5380;BME280;2713;42.680;23.310;2024-03-02T05:41:37;94509.22;;;11.01;81.98
5380;BME280;2713;42.680;23.310;2024-03-02T05:44:04;94501.44;;;11.07;81.67
5380;BME280;2713;42.680;23.310;2024-03-02T05:46:31;94505.66;;;11.15;82.02
5380;BME280;2713;42.680;23.310;2024-03-02T05:48:59;94510.91;;;11.28;81.75
5380;BME280;2713;42.680;23.310;2024-03-02T05:51:26;94512.91;;;11.19;82.33
5380;BME280;2713;42.680;23.310;2024-03-02T05:53:53;94515.03;;;11.03;83.33
5380;BME280;2713;42.680;23.310;2024-03-02T05:56:20;94511.66;;;11.09;82.52
5380;BME280;2713;42.680;23.310;2024-03-02T05:58:47;94517.88;;;11.14;82.75
5380;BME280;2713;42.680;23.310;2024-03-02T06:01:26;94509.91;;;11.23;82.58
5380;BME280;2713;42.680;23.310;2024-03-02T06:03:55;94512.72;;;11.34;82.53
5380;BME280;2713;42.680;23.310;2024-03-02T06:06:23;94508.53;;;11.40;82.38
5380;BME280;2713;42.680;23.310;2024-03-02T06:08:50;94504.50;;;11.37;82.04
5380;BME280;2713;42.680;23.310;2024-03-02T06:11:19;94504.09;;;11.27;82.76
5380;BME280;2713;42.680;23.310;2024-03-02T06:13:46;94508.31;;;11.28;82.67
5380;BME280;2713;42.680;23.310;2024-03-02T06:16:12;94504.28;;;11.12;83.03
5380;BME280;2713;42.680;23.310;2024-03-02T06:18:39;94509.56;;;10.85;84.38
5380;BME280;2713;42.680;23.310;2024-03-02T06:21:06;94512.75;;;10.80;85.44
5380;BME280;2713;42.680;23.310;2024-03-02T06:23:34;94513.47;;;10.61;85.80
5380;BME280;2713;42.680;23.310;2024-03-02T06:26:02;94516.09;;;10.67;85.85
5380;BME280;2713;42.680;23.310;2024-03-02T06:28:28;94514.00;;;10.91;85.98
5380;BME280;2713;42.680;23.310;2024-03-02T06:30:55;94517.56;;;10.90;86.09
5380;BME280;2713;42.680;23.310;2024-03-02T06:33:22;94528.38;;;10.87;85.13
5380;BME280;2713;42.680;23.310;2024-03-02T06:35:49;94519.91;;;10.72;85.18
5380;BME280;2713;42.680;23.310;2024-03-02T06:38:16;94522.19;;;10.88;85.15
5380;BME280;2713;42.680;23.310;2024-03-02T06:40:44;94525.19;;;10.91;85.17
5380;BME280;2713;42.680;23.310;2024-03-02T06:43:11;94522.38;;;10.93;85.21
5380;BME280;2713;42.680;23.310;2024-03-02T06:45:38;94526.09;;;10.71;85.87
5380;BME280;2713;42.680;23.310;2024-03-02T06:48:06;94528.28;;;10.67;86.43
5380;BME280;2713;42.680;23.310;2024-03-02T06:50:33;94527.16;;;10.89;86.49
5380;BME280;2713;42.680;23.310;2024-03-02T06:53:00;94529.84;;;11.02;85.51
5380;BME280;2713;42.680;23.310;2024-03-02T06:55:26;94531.66;;;11.08;85.46
5380;BME280;2713;42.680;23.310;2024-03-02T06:57:55;94531.66;;;11.08;85.21
5380;BME280;2713;42.680;23.310;2024-03-02T07:00:22;94535.06;;;11.09;85.19
5380;BME280;2713;42.680;23.310;2024-03-02T07:02:49;94539.25;;;11.10;84.65
5380;BME280;2713;42.680;23.310;2024-03-02T07:05:16;94544.47;;;11.10;84.72
5380;BME280;2713;42.680;23.310;2024-03-02T07:07:43;94540.06;;;11.10;83.94
5380;BME280;2713;42.680;23.310;2024-03-02T07:10:10;94545.09;;;11.12;83.82
5380;BME280;2713;42.680;23.310;2024-03-02T07:12:37;94540.03;;;11.04;84.27
5380;BME280;2713;42.680;23.310;2024-03-02T07:15:06;94544.84;;;11.07;84.64
5380;BME280;2713;42.680;23.310;2024-03-02T07:18:08;94544.84;;;11.07;84.84
5380;BME280;2713;42.680;23.310;2024-03-02T07:20:35;94539.56;;;10.81;84.15
5380;BME280;2713;42.680;23.310;2024-03-02T07:23:04;94541.38;;;10.87;85.03
5380;BME280;2713;42.680;23.310;2024-03-02T07:25:32;94547.00;;;10.97;84.88
5380;BME280;2713;42.680;23.310;2024-03-02T07:27:59;94548.19;;;10.88;85.34
5380;BME280;2713;42.680;23.310;2024-03-02T07:30:27;94549.25;;;10.65;84.91
5380;BME280;2713;42.680;23.310;2024-03-02T07:32:54;94550.81;;;10.53;86.68
5380;BME280;2713;42.680;23.310;2024-03-02T07:35:21;94548.94;;;10.75;86.11
5380;BME280;2713;42.680;23.310;2024-03-02T07:37:52;94547.34;;;10.81;85.40
5380;BME280;2713;42.680;23.310;2024-03-02T07:40:19;94563.13;;;10.79;84.96
5380;BME280;2713;42.680;23.310;2024-03-02T07:42:46;94554.06;;;10.68;85.02
5380;BME280;2713;42.680;23.310;2024-03-02T07:45:13;94554.00;;;10.55;86.82
5380;BME280;2713;42.680;23.310;2024-03-02T07:47:41;94561.94;;;10.75;86.32
5380;BME280;2713;42.680;23.310;2024-03-02T07:50:08;94560.44;;;10.59;85.54
5380;BME280;2713;42.680;23.310;2024-03-02T07:52:35;94561.88;;;10.68;85.41
5380;BME280;2713;42.680;23.310;2024-03-02T07:55:02;94561.72;;;10.42;85.65
5380;BME280;2713;42.680;23.310;2024-03-02T07:57:29;94565.22;;;10.07;87.58
5380;BME280;2713;42.680;23.310;2024-03-02T07:59:56;94567.44;;;10.31;87.07
5380;BME280;2713;42.680;23.310;2024-03-02T08:02:24;94569.31;;;10.37;87.09
5380;BME280;2713;42.680;23.310;2024-03-02T08:04:53;94563.66;;;10.61;86.79
5380;BME280;2713;42.680;23.310;2024-03-02T08:07:20;94569.47;;;10.70;86.11
5380;BME280;2713;42.680;23.310;2024-03-02T08:09:46;94575.03;;;10.60;85.96
5380;BME280;2713;42.680;23.310;2024-03-02T08:12:13;94576.72;;;10.40;86.73
5380;BME280;2713;42.680;23.310;2024-03-02T08:14:40;94574.47;;;10.65;86.84
5380;BME280;2713;42.680;23.310;2024-03-02T08:17:07;94572.19;;;10.55;86.80
5380;BME280;2713;42.680;23.310;2024-03-02T08:19:35;94577.47;;;10.68;86.68
5380;BME280;2713;42.680;23.310;2024-03-02T08:22:04;94570.69;;;10.67;86.36
5380;BME280;2713;42.680;23.310;2024-03-02T08:24:31;94576.72;;;10.75;86.26
5380;BME280;2713;42.680;23.310;2024-03-02T08:26:59;94572.97;;;10.49;87.39
5380;BME280;2713;42.680;23.310;2024-03-02T08:29:26;94572.63;;;10.31;88.01
5380;BME280;2713;42.680;23.310;2024-03-02T08:31:53;94552.75;;;10.45;87.20
5380;BME280;2713;42.680;23.310;2024-03-02T08:34:20;94569.41;;;10.57;87.44
5380;BME280;2713;42.680;23.310;2024-03-02T08:36:47;94565.50;;;10.40;87.56
5380;BME280;2713;42.680;23.310;2024-03-02T08:39:15;94568.66;;;10.35;88.59
5380;BME280;2713;42.680;23.310;2024-03-02T08:41:42;94571.91;;;10.37;88.18
5380;BME280;2713;42.680;23.310;2024-03-02T08:44:09;94566.06;;;10.35;88.45
5380;BME280;2713;42.680;23.310;2024-03-02T08:46:36;94562.66;;;10.35;88.89
5380;BME280;2713;42.680;23.310;2024-03-02T08:49:04;94578.38;;;10.48;88.50
5380;BME280;2713;42.680;23.310;2024-03-02T08:51:31;94571.22;;;10.56;88.43
5380;BME280;2713;42.680;23.310;2024-03-02T08:53:58;94572.34;;;10.82;87.08
5380;BME280;2713;42.680;23.310;2024-03-02T08:56:26;94569.06;;;10.66;86.43
5380;BME280;2713;42.680;23.310;2024-03-02T08:58:53;94572.66;;;10.65;86.90
5380;BME280;2713;42.680;23.310;2024-03-02T09:01:20;94572.25;;;10.68;87.62
5380;BME280;2713;42.680;23.310;2024-03-02T09:03:47;94566.50;;;10.73;86.55
5380;BME280;2713;42.680;23.310;2024-03-02T09:06:14;94574.97;;;11.29;85.07
5380;BME280;2713;42.680;23.310;2024-03-02T09:08:42;94574.19;;;11.48;84.64
5380;BME280;2713;42.680;23.310;2024-03-02T09:11:09;94578.63;;;11.61;84.74
5380;BME280;2713;42.680;23.310;2024-03-02T09:13:38;94582.22;;;11.53;83.77
5380;BME280;2713;42.680;23.310;2024-03-02T09:16:05;94578.53;;;11.28;83.45
5380;BME280;2713;42.680;23.310;2024-03-02T09:18:36;94582.75;;;11.29;83.93
5380;BME280;2713;42.680;23.310;2024-03-02T09:21:04;94589.63;;;11.50;83.85
5380;BME280;2713;42.680;23.310;2024-03-02T09:23:31;94586.50;;;11.20;83.80
5380;BME280;2713;42.680;23.310;2024-03-02T09:25:58;94583.84;;;11.07;84.49
5380;BME280;2713;42.680;23.310;2024-03-02T09:28:25;94594.41;;;10.92;84.63
5380;BME280;2713;42.680;23.310;2024-03-02T09:30:53;94590.06;;;11.06;84.40
5380;BME280;2713;42.680;23.310;2024-03-02T09:33:20;94591.34;;;11.23;83.16
5380;BME280;2713;42.680;23.310;2024-03-02T09:35:47;94589.38;;;11.38;84.37
5380;BME280;2713;42.680;23.310;2024-03-02T09:38:14;94592.81;;;11.45;83.83
5380;BME280;2713;42.680;23.310;2024-03-02T09:40:41;94593.88;;;11.64;82.35
5380;BME280;2713;42.680;23.310;2024-03-02T09:43:08;94590.88;;;11.60;82.14
5380;BME280;2713;42.680;23.310;2024-03-02T09:45:36;94587.47;;;11.66;82.25
5380;BME280;2713;42.680;23.310;2024-03-02T09:48:05;94594.72;;;11.71;81.85
5380;BME280;2713;42.680;23.310;2024-03-02T09:50:32;94595.88;;;11.68;81.94
5380;BME280;2713;42.680;23.310;2024-03-02T09:52:58;94592.94;;;11.91;81.32
5380;BME280;2713;42.680;23.310;2024-03-02T09:55:25;94597.94;;;11.93;81.88
5380;BME280;2713;42.680;23.310;2024-03-02T10:06:20;94595.75;;;12.23;83.69
5380;BME280;2713;42.680;23.310;2024-03-02T10:08:47;94592.56;;;12.27;82.07
5380;BME280;2713;42.680;23.310;2024-03-02T10:11:26;94595.56;;;12.24;81.48
5380;BME280;2713;42.680;23.310;2024-03-02T10:14:07;94595.34;;;12.12;82.40
5380;BME280;2713;42.680;23.310;2024-03-02T10:16:35;94595.16;;;12.01;81.36
5380;BME280;2713;42.680;23.310;2024-03-02T10:19:16;94585.31;;;11.77;80.88
5380;BME280;2713;42.680;23.310;2024-03-02T10:21:45;94597.06;;;11.59;81.24
5380;BME280;2713;42.680;23.310;2024-03-02T10:24:13;94604.22;;;11.44;82.25
5380;BME280;2713;42.680;23.310;2024-03-02T10:26:39;94594.94;;;11.22;82.29
5380;BME280;2713;42.680;23.310;2024-03-02T10:29:07;94583.72;;;11.15;84.01
5380;BME280;2713;42.680;23.310;2024-03-02T10:31:37;94586.50;;;11.13;83.92
5380;BME280;2713;42.680;23.310;2024-03-02T10:34:04;94594.22;;;11.00;85.13
5380;BME280;2713;42.680;23.310;2024-03-02T10:36:32;94589.75;;;11.29;85.40
5380;BME280;2713;42.680;23.310;2024-03-02T10:39:03;94592.81;;;11.45;83.58
5380;BME280;2713;42.680;23.310;2024-03-02T10:41:32;94584.47;;;11.69;82.69
5380;BME280;2713;42.680;23.310;2024-03-02T10:44:01;94593.09;;;11.70;83.54
5380;BME280;2713;42.680;23.310;2024-03-02T10:46:29;94590.72;;;11.21;83.82
5380;BME280;2713;42.680;23.310;2024-03-02T10:48:57;94582.78;;;10.88;86.06
5380;BME280;2713;42.680;23.310;2024-03-02T10:51:25;94574.53;;;11.26;85.72
5380;BME280;2713;42.680;23.310;2024-03-02T10:53:53;94576.19;;;11.40;84.50
5380;BME280;2713;42.680;23.310;2024-03-02T10:56:28;94573.81;;;11.64;83.81
5380;BME280;2713;42.680;23.310;2024-03-02T10:59:01;94579.28;;;11.76;83.72
5380;BME280;2713;42.680;23.310;2024-03-02T11:01:29;94583.63;;;11.56;83.04
5380;BME280;2713;42.680;23.310;2024-03-02T11:03:57;94578.59;;;11.41;84.13
5380;BME280;2713;42.680;23.310;2024-03-02T11:06:26;94572.41;;;11.49;83.56
5380;BME280;2713;42.680;23.310;2024-03-02T11:08:55;94575.19;;;11.47;84.12
5380;BME280;2713;42.680;23.310;2024-03-02T11:11:29;94573.81;;;11.58;83.06
5380;BME280;2713;42.680;23.310;2024-03-02T11:13:57;94571.06;;;11.73;81.55
5380;BME280;2713;42.680;23.310;2024-03-02T11:16:34;94572.22;;;11.57;82.44
5380;BME280;2713;42.680;23.310;2024-03-02T11:19:03;94574.19;;;11.48;84.16
5380;BME280;2713;42.680;23.310;2024-03-02T11:21:32;94569.84;;;11.68;83.87
5380;BME280;2713;42.680;23.310;2024-03-02T11:23:59;94567.91;;;11.84;83.15
5380;BME280;2713;42.680;23.310;2024-03-02T11:26:29;94571.50;;;11.96;82.18
5380;BME280;2713;42.680;23.310;2024-03-02T11:29:04;94562.69;;;11.97;82.08
5380;BME280;2713;42.680;23.310;2024-03-02T11:31:57;94567.31;;;12.08;81.70
5380;BME280;2713;42.680;23.310;2024-03-02T11:34:29;94563.91;;;12.14;81.86
5380;BME280;2713;42.680;23.310;2024-03-02T11:36:56;94561.88;;;12.16;81.41
5380;BME280;2713;42.680;23.310;2024-03-02T11:39:24;94562.09;;;12.14;81.21
5380;BME280;2713;42.680;23.310;2024-03-02T11:41:53;94563.09;;;12.20;80.92
5380;BME280;2713;42.680;23.310;2024-03-02T11:44:20;94569.50;;;12.24;80.59
5380;BME280;2713;42.680;23.310;2024-03-02T11:46:51;94569.13;;;12.07;80.37
5380;BME280;2713;42.680;23.310;2024-03-02T11:49:36;94565.09;;;12.11;80.85
5380;BME280;2713;42.680;23.310;2024-03-02T11:52:05;94567.91;;;12.10;81.26
5380;BME280;2713;42.680;23.310;2024-03-02T11:54:33;94564.72;;;12.08;81.63
5380;BME280;2713;42.680;23.310;2024-03-02T11:57:03;94563.31;;;12.05;81.85
5380;BME280;2713;42.680;23.310;2024-03-02T11:59:30;94564.31;;;12.11;81.46
5380;BME280;2713;42.680;23.310;2024-03-02T12:01:58;94563.91;;;12.14;81.79
5380;BME280;2713;42.680;23.310;2024-03-02T12:04:26;94561.28;;;12.14;82.04
5380;BME280;2713;42.680;23.310;2024-03-02T12:06:54;94564.28;;;12.24;81.48
5380;BME280;2713;42.680;23.310;2024-03-02T12:09:22;94568.31;;;12.07;81.97
5380;BME280;2713;42.680;23.310;2024-03-02T12:12:02;94567.88;;;11.71;81.56
5380;BME280;2713;42.680;23.310;2024-03-02T12:14:30;94556.25;;;11.73;82.34
5380;BME280;2713;42.680;23.310;2024-03-02T12:16:57;94562.06;;;11.82;82.13
5380;BME280;2713;42.680;23.310;2024-03-02T12:19:25;94564.31;;;11.98;81.79
5380;BME280;2713;42.680;23.310;2024-03-02T12:21:52;94563.50;;;11.84;82.04
5380;BME280;2713;42.680;23.310;2024-03-02T12:24:21;94571.09;;;11.92;81.78
5380;BME280;2713;42.680;23.310;2024-03-02T12:26:49;94563.50;;;12.10;81.21
5380;BME280;2713;42.680;23.310;2024-03-02T12:29:18;94562.69;;;12.30;81.29
5380;BME280;2713;42.680;23.310;2024-03-02T12:31:45;94560.06;;;11.77;82.06
5380;BME280;2713;42.680;23.310;2024-03-02T12:34:13;94558.22;;;11.64;83.39
5380;BME280;2713;42.680;23.310;2024-03-02T12:36:41;94561.28;;;11.81;82.59
5380;BME280;2713;42.680;23.310;2024-03-02T12:39:08;94546.66;;;12.13;84.56
5380;BME280;2713;42.680;23.310;2024-03-02T12:41:38;94561.50;;;12.06;81.04
5380;BME280;2713;42.680;23.310;2024-03-02T12:44:05;94565.69;;;11.94;81.21
5380;BME280;2713;42.680;23.310;2024-03-02T12:46:34;94563.69;;;12.09;80.67
5380;BME280;2713;42.680;23.310;2024-03-02T12:49:07;94561.88;;;12.09;80.65
5380;BME280;2713;42.680;23.310;2024-03-02T12:51:35;94563.31;;;12.12;81.07
5380;BME280;2713;42.680;23.310;2024-03-02T12:54:02;94562.09;;;11.88;81.55
5380;BME280;2713;42.680;23.310;2024-03-02T12:56:31;94569.53;;;11.98;81.55
5380;BME280;2713;42.680;23.310;2024-03-02T12:58:59;94562.28;;;12.13;80.59
5380;BME280;2713;42.680;23.310;2024-03-02T13:01:26;94570.69;;;11.89;80.67
5380;BME280;2713;42.680;23.310;2024-03-02T13:03:58;94570.22;;;11.52;81.86
5380;BME280;2713;42.680;23.310;2024-03-02T13:06:26;94572.81;;;11.59;81.85
5380;BME280;2713;42.680;23.310;2024-03-02T13:08:54;94565.66;;;11.67;81.22
5380;BME280;2713;42.680;23.310;2024-03-02T13:11:22;94571.44;;;11.69;81.09
5380;BME280;2713;42.680;23.310;2024-03-02T13:13:50;94569.69;;;11.77;81.76
5380;BME280;2713;42.680;23.310;2024-03-02T13:16:18;94565.88;;;11.99;81.01
5380;BME280;2713;42.680;23.310;2024-03-02T13:18:45;94568.88;;;11.83;81.45
5380;BME280;2713;42.680;23.310;2024-03-02T13:21:14;94572.69;;;11.80;80.53
5380;BME280;2713;42.680;23.310;2024-03-02T13:23:41;94570.69;;;11.82;80.58
5380;BME280;2713;42.680;23.310;2024-03-02T13:26:08;94575.50;;;11.79;81.93
5380;BME280;2713;42.680;23.310;2024-03-02T13:28:36;94579.13;;;11.97;80.91